sensor_id;sensor_type;location;lat;lon;timestamp;P1;durP1;ratioP1;P2;durP2;ratioP2
22794;SDS011;11564;50.920;11.612;2022-09-20T00:01:09;4.53;;;0.93;;
22794;SDS011;11564;50.920;11.612;2022-09-20T00:03:38;1.33;;;0.90;;
22794;SDS011;11564;50.920;11.612;2022-09-20T00:06:06;6.90;;;1.30;;
22794;SDS011;11564;50.920;11.612;2022-09-20T00:08:33;3.20;;;1.60;;
22794;SDS011;11564;50.920;11.612;2022-09-20T00:11:00;3.03;;;1.00;;
22794;SDS011;11564;50.920;11.612;2022-09-20T00:13:30;4.63;;;1.30;;
22794;SDS011;11564;50.920;11.612;2022-09-20T00:15:56;3.83;;;1.03;;
22794;SDS011;11564;50.920;11.612;2022-09-20T00:18:22;5.90;;;0.80;;
22794;SDS011;11564;50.920;11.612;2022-09-20T00:20:49;4.37;;;1.40;;
22794;SDS011;11564;50.920;11.612;2022-09-20T00:23:15;2.13;;;1.07;;
22794;SDS011;11564;50.920;11.612;2022-09-20T00:25:41;1.40;;;1.07;;
22794;SDS011;11564;50.920;11.612;2022-09-20T00:28:07;4.60;;;1.00;;
22794;SDS011;11564;50.920;11.612;2022-09-20T00:30:34;4.33;;;0.87;;
22794;SDS011;11564;50.920;11.612;2022-09-20T00:33:01;2.90;;;1.00;;
22794;SDS011;11564;50.920;11.612;2022-09-20T00:35:28;1.93;;;0.80;;
22794;SDS011;11564;50.920;11.612;2022-09-20T00:37:55;1.70;;;1.23;;
22794;SDS011;11564;50.920;11.612;2022-09-20T00:40:21;3.90;;;1.30;;
22794;SDS011;11564;50.920;11.612;2022-09-20T00:42:48;3.10;;;1.03;;
22794;SDS011;11564;50.920;11.612;2022-09-20T00:45:25;3.83;;;1.17;;
22794;SDS011;11564;50.920;11.612;2022-09-20T00:47:54;2.47;;;1.00;;
22794;SDS011;11564;50.920;11.612;2022-09-20T00:55:49;3.83;;;1.00;;
22794;SDS011;11564;50.920;11.612;2022-09-20T00:58:19;3.33;;;1.53;;
22794;SDS011;11564;50.920;11.612;2022-09-20T01:00:48;5.33;;;1.50;;
22794;SDS011;11564;50.920;11.612;2022-09-20T01:03:15;8.10;;;1.33;;
22794;SDS011;11564;50.920;11.612;2022-09-20T01:05:44;3.70;;;1.50;;
22794;SDS011;11564;50.920;11.612;2022-09-20T01:08:09;0.97;;;0.80;;
22794;SDS011;11564;50.920;11.612;2022-09-20T01:10:36;7.80;;;1.10;;
22794;SDS011;11564;50.920;11.612;2022-09-20T01:13:02;4.93;;;0.90;;
22794;SDS011;11564;50.920;11.612;2022-09-20T01:15:29;2.83;;;1.13;;
22794;SDS011;11564;50.920;11.612;2022-09-20T01:17:57;5.43;;;1.47;;
22794;SDS011;11564;50.920;11.612;2022-09-20T01:20:26;2.93;;;1.20;;
22794;SDS011;11564;50.920;11.612;2022-09-20T01:23:02;3.90;;;1.40;;
22794;SDS011;11564;50.920;11.612;2022-09-20T01:28:36;5.20;;;1.37;;
22794;SDS011;11564;50.920;11.612;2022-09-20T01:31:07;2.83;;;1.07;;
22794;SDS011;11564;50.920;11.612;2022-09-20T01:39:24;6.43;;;1.33;;
22794;SDS011;11564;50.920;11.612;2022-09-20T01:42:04;5.27;;;1.23;;
22794;SDS011;11564;50.920;11.612;2022-09-20T01:44:36;6.00;;;1.40;;
22794;SDS011;11564;50.920;11.612;2022-09-20T01:52:39;1.90;;;1.07;;
22794;SDS011;11564;50.920;11.612;2022-09-20T02:12:16;8.30;;;1.80;;
22794;SDS011;11564;50.920;11.612;2022-09-20T02:17:54;6.60;;;1.30;;
22794;SDS011;11564;50.920;11.612;2022-09-20T02:25:56;11.20;;;1.97;;
22794;SDS011;11564;50.920;11.612;2022-09-20T02:28:43;10.23;;;1.60;;
22794;SDS011;11564;50.920;11.612;2022-09-20T02:48:33;8.53;;;2.27;;
22794;SDS011;11564;50.920;11.612;2022-09-20T02:51:45;6.60;;;1.33;;
22794;SDS011;11564;50.920;11.612;2022-09-20T02:57:02;7.50;;;1.77;;
22794;SDS011;11564;50.920;11.612;2022-09-20T03:13:24;11.63;;;2.20;;
22794;SDS011;11564;50.920;11.612;2022-09-20T03:16:14;6.27;;;1.53;;
22794;SDS011;11564;50.920;11.612;2022-09-20T03:26:57;8.00;;;2.00;;
22794;SDS011;11564;50.920;11.612;2022-09-20T03:38:32;4.43;;;2.00;;
22794;SDS011;11564;50.920;11.612;2022-09-20T03:46:36;9.57;;;2.60;;
22794;SDS011;11564;50.920;11.612;2022-09-20T03:52:09;13.07;;;2.27;;
22794;SDS011;11564;50.920;11.612;2022-09-20T04:00:38;3.50;;;1.97;;
22794;SDS011;11564;50.920;11.612;2022-09-20T04:14:25;7.53;;;2.27;;
22794;SDS011;11564;50.920;11.612;2022-09-20T04:23:06;6.97;;;1.77;;
22794;SDS011;11564;50.920;11.612;2022-09-20T04:25:53;3.47;;;2.40;;
22794;SDS011;11564;50.920;11.612;2022-09-20T04:28:31;4.03;;;2.00;;
22794;SDS011;11564;50.920;11.612;2022-09-20T04:31:08;11.40;;;2.40;;
22794;SDS011;11564;50.920;11.612;2022-09-20T04:33:47;5.70;;;1.83;;
22794;SDS011;11564;50.920;11.612;2022-09-20T04:39:05;2.53;;;2.30;;
22794;SDS011;11564;50.920;11.612;2022-09-20T04:47:57;2.07;;;1.77;;
22794;SDS011;11564;50.920;11.612;2022-09-20T04:50:41;5.40;;;2.90;;
22794;SDS011;11564;50.920;11.612;2022-09-20T05:20:09;9.03;;;2.37;;
22794;SDS011;11564;50.920;11.612;2022-09-20T05:28:49;9.67;;;2.67;;
22794;SDS011;11564;50.920;11.612;2022-09-20T05:31:33;5.90;;;2.43;;
22794;SDS011;11564;50.920;11.612;2022-09-20T05:37:02;2.47;;;2.23;;
22794;SDS011;11564;50.920;11.612;2022-09-20T05:42:51;3.57;;;2.40;;
22794;SDS011;11564;50.920;11.612;2022-09-20T05:48:34;5.20;;;2.20;;
22794;SDS011;11564;50.920;11.612;2022-09-20T05:51:07;13.67;;;2.20;;
22794;SDS011;11564;50.920;11.612;2022-09-20T06:08:10;4.30;;;2.00;;
22794;SDS011;11564;50.920;11.612;2022-09-20T06:21:57;4.83;;;2.23;;
22794;SDS011;11564;50.920;11.612;2022-09-20T06:24:30;7.30;;;1.97;;
22794;SDS011;11564;50.920;11.612;2022-09-20T06:27:06;6.27;;;2.37;;
22794;SDS011;11564;50.920;11.612;2022-09-20T06:29:37;6.00;;;2.30;;
22794;SDS011;11564;50.920;11.612;2022-09-20T06:32:07;4.80;;;1.87;;
22794;SDS011;11564;50.920;11.612;2022-09-20T06:34:33;7.17;;;2.17;;
22794;SDS011;11564;50.920;11.612;2022-09-20T06:37:05;4.33;;;2.40;;
22794;SDS011;11564;50.920;11.612;2022-09-20T06:43:21;6.30;;;2.20;;
22794;SDS011;11564;50.920;11.612;2022-09-20T06:45:47;4.20;;;2.27;;
22794;SDS011;11564;50.920;11.612;2022-09-20T06:48:13;7.10;;;2.33;;
22794;SDS011;11564;50.920;11.612;2022-09-20T06:50:39;4.33;;;2.20;;
22794;SDS011;11564;50.920;11.612;2022-09-20T06:53:20;6.00;;;2.10;;
22794;SDS011;11564;50.920;11.612;2022-09-20T06:55:56;3.83;;;1.97;;
22794;SDS011;11564;50.920;11.612;2022-09-20T06:58:22;4.43;;;2.00;;
22794;SDS011;11564;50.920;11.612;2022-09-20T07:00:48;3.27;;;1.67;;
22794;SDS011;11564;50.920;11.612;2022-09-20T07:03:14;6.10;;;2.40;;
22794;SDS011;11564;50.920;11.612;2022-09-20T07:05:39;6.80;;;1.87;;
22794;SDS011;11564;50.920;11.612;2022-09-20T07:08:05;7.13;;;1.87;;
22794;SDS011;11564;50.920;11.612;2022-09-20T07:10:31;5.17;;;2.60;;
22794;SDS011;11564;50.920;11.612;2022-09-20T07:12:58;5.93;;;1.97;;
22794;SDS011;11564;50.920;11.612;2022-09-20T07:15:25;2.20;;;1.53;;
22794;SDS011;11564;50.920;11.612;2022-09-20T07:17:52;7.40;;;2.00;;
22794;SDS011;11564;50.920;11.612;2022-09-20T07:20:17;3.77;;;2.03;;
22794;SDS011;11564;50.920;11.612;2022-09-20T07:22:46;3.00;;;1.47;;
22794;SDS011;11564;50.920;11.612;2022-09-20T07:25:12;3.67;;;1.80;;
22794;SDS011;11564;50.920;11.612;2022-09-20T07:27:37;9.30;;;2.27;;
22794;SDS011;11564;50.920;11.612;2022-09-20T07:30:04;4.63;;;1.90;;
22794;SDS011;11564;50.920;11.612;2022-09-20T07:32:30;6.90;;;1.67;;
22794;SDS011;11564;50.920;11.612;2022-09-20T07:34:56;2.80;;;2.13;;
22794;SDS011;11564;50.920;11.612;2022-09-20T07:37:21;2.40;;;1.60;;
22794;SDS011;11564;50.920;11.612;2022-09-20T07:39:47;6.80;;;2.10;;
22794;SDS011;11564;50.920;11.612;2022-09-20T07:42:13;4.17;;;2.23;;
22794;SDS011;11564;50.920;11.612;2022-09-20T07:44:38;5.97;;;1.73;;
22794;SDS011;11564;50.920;11.612;2022-09-20T07:47:08;12.77;;;1.90;;
22794;SDS011;11564;50.920;11.612;2022-09-20T07:49:35;9.63;;;2.23;;
22794;SDS011;11564;50.920;11.612;2022-09-20T07:52:01;10.13;;;1.87;;
22794;SDS011;11564;50.920;11.612;2022-09-20T07:54:29;6.33;;;1.70;;
22794;SDS011;11564;50.920;11.612;2022-09-20T07:56:55;7.17;;;2.17;;
22794;SDS011;11564;50.920;11.612;2022-09-20T07:59:20;5.90;;;2.23;;
22794;SDS011;11564;50.920;11.612;2022-09-20T08:01:46;5.67;;;2.23;;
22794;SDS011;11564;50.920;11.612;2022-09-20T08:04:12;4.60;;;2.27;;
22794;SDS011;11564;50.920;11.612;2022-09-20T08:06:39;4.10;;;1.70;;
22794;SDS011;11564;50.920;11.612;2022-09-20T08:09:06;7.57;;;1.77;;
22794;SDS011;11564;50.920;11.612;2022-09-20T08:11:32;2.37;;;1.40;;
22794;SDS011;11564;50.920;11.612;2022-09-20T08:13:59;3.30;;;1.10;;
22794;SDS011;11564;50.920;11.612;2022-09-20T08:16:26;7.50;;;1.27;;
22794;SDS011;11564;50.920;11.612;2022-09-20T08:18:57;5.67;;;2.50;;
22794;SDS011;11564;50.920;11.612;2022-09-20T08:21:24;5.87;;;1.80;;
22794;SDS011;11564;50.920;11.612;2022-09-20T08:23:51;2.67;;;1.23;;
22794;SDS011;11564;50.920;11.612;2022-09-20T08:26:19;10.13;;;1.90;;
22794;SDS011;11564;50.920;11.612;2022-09-20T08:28:50;4.10;;;1.43;;
22794;SDS011;11564;50.920;11.612;2022-09-20T08:31:18;3.60;;;1.80;;
22794;SDS011;11564;50.920;11.612;2022-09-20T08:33:46;4.03;;;1.70;;
22794;SDS011;11564;50.920;11.612;2022-09-20T08:36:13;3.33;;;1.23;;
22794;SDS011;11564;50.920;11.612;2022-09-20T08:38:40;5.53;;;1.50;;
22794;SDS011;11564;50.920;11.612;2022-09-20T08:41:10;4.37;;;1.73;;
22794;SDS011;11564;50.920;11.612;2022-09-20T08:43:45;4.72;;;1.40;;
22794;SDS011;11564;50.920;11.612;2022-09-20T08:46:19;4.73;;;1.40;;
22794;SDS011;11564;50.920;11.612;2022-09-20T08:48:49;5.20;;;1.70;;
22794;SDS011;11564;50.920;11.612;2022-09-20T08:51:16;3.43;;;1.87;;
22794;SDS011;11564;50.920;11.612;2022-09-20T08:53:47;12.40;;;2.33;;
22794;SDS011;11564;50.920;11.612;2022-09-20T08:56:15;5.83;;;1.50;;
22794;SDS011;11564;50.920;11.612;2022-09-20T08:58:41;4.73;;;1.37;;
22794;SDS011;11564;50.920;11.612;2022-09-20T09:01:10;4.83;;;1.17;;
22794;SDS011;11564;50.920;11.612;2022-09-20T09:03:42;4.70;;;1.43;;
22794;SDS011;11564;50.920;11.612;2022-09-20T09:06:09;3.23;;;1.80;;
22794;SDS011;11564;50.920;11.612;2022-09-20T09:08:38;1.77;;;1.10;;
22794;SDS011;11564;50.920;11.612;2022-09-20T09:11:05;4.60;;;1.23;;
22794;SDS011;11564;50.920;11.612;2022-09-20T09:13:38;6.30;;;2.10;;
22794;SDS011;11564;50.920;11.612;2022-09-20T09:16:27;3.47;;;1.80;;
22794;SDS011;11564;50.920;11.612;2022-09-20T09:18:54;5.90;;;1.70;;
22794;SDS011;11564;50.920;11.612;2022-09-20T09:21:25;4.10;;;1.20;;
22794;SDS011;11564;50.920;11.612;2022-09-20T09:23:52;6.97;;;2.40;;
22794;SDS011;11564;50.920;11.612;2022-09-20T09:26:26;5.20;;;1.90;;
22794;SDS011;11564;50.920;11.612;2022-09-20T09:31:41;10.70;;;1.50;;
22794;SDS011;11564;50.920;11.612;2022-09-20T09:36:50;5.10;;;1.57;;
22794;SDS011;11564;50.920;11.612;2022-09-20T09:39:21;4.90;;;1.23;;
22794;SDS011;11564;50.920;11.612;2022-09-20T09:41:47;4.20;;;1.17;;
22794;SDS011;11564;50.920;11.612;2022-09-20T09:46:56;2.73;;;1.43;;
22794;SDS011;11564;50.920;11.612;2022-09-20T09:49:23;7.07;;;1.70;;
22794;SDS011;11564;50.920;11.612;2022-09-20T09:54:19;6.20;;;1.67;;
22794;SDS011;11564;50.920;11.612;2022-09-20T10:07:48;7.03;;;1.73;;
22794;SDS011;11564;50.920;11.612;2022-09-20T10:10:35;5.20;;;2.03;;
22794;SDS011;11564;50.920;11.612;2022-09-20T10:16:05;7.50;;;1.77;;
22794;SDS011;11564;50.920;11.612;2022-09-20T10:27:21;4.90;;;1.17;;
22794;SDS011;11564;50.920;11.612;2022-09-20T10:30:08;3.70;;;1.37;;
22794;SDS011;11564;50.920;11.612;2022-09-20T10:35:47;4.60;;;1.57;;
22794;SDS011;11564;50.920;11.612;2022-09-20T10:38:35;3.93;;;1.10;;
22794;SDS011;11564;50.920;11.612;2022-09-20T10:49:26;6.37;;;2.00;;
22794;SDS011;11564;50.920;11.612;2022-09-20T11:00:06;3.53;;;1.00;;
22794;SDS011;11564;50.920;11.612;2022-09-20T11:08:35;2.90;;;0.90;;
22794;SDS011;11564;50.920;11.612;2022-09-20T11:11:16;5.33;;;1.07;;
22794;SDS011;11564;50.920;11.612;2022-09-20T11:14:22;4.40;;;0.93;;
22794;SDS011;11564;50.920;11.612;2022-09-20T11:19:55;2.40;;;1.40;;
22794;SDS011;11564;50.920;11.612;2022-09-20T11:22:45;2.90;;;1.23;;
22794;SDS011;11564;50.920;11.612;2022-09-20T11:28:10;2.77;;;1.20;;
22794;SDS011;11564;50.920;11.612;2022-09-20T11:30:42;5.33;;;1.63;;
22794;SDS011;11564;50.920;11.612;2022-09-20T11:33:27;3.57;;;1.67;;
22794;SDS011;11564;50.920;11.612;2022-09-20T11:36:09;2.50;;;1.40;;
22794;SDS011;11564;50.920;11.612;2022-09-20T11:38:54;3.93;;;2.20;;
22794;SDS011;11564;50.920;11.612;2022-09-20T11:41:28;4.13;;;1.20;;
22794;SDS011;11564;50.920;11.612;2022-09-20T11:43:56;3.33;;;1.30;;
22794;SDS011;11564;50.920;11.612;2022-09-20T11:46:30;6.60;;;1.87;;
22794;SDS011;11564;50.920;11.612;2022-09-20T11:49:04;3.87;;;1.00;;
22794;SDS011;11564;50.920;11.612;2022-09-20T11:57:13;2.50;;;1.10;;
22794;SDS011;11564;50.920;11.612;2022-09-20T11:59:40;4.73;;;0.80;;
22794;SDS011;11564;50.920;11.612;2022-09-20T12:04:42;6.47;;;1.10;;
22794;SDS011;11564;50.920;11.612;2022-09-20T12:07:16;1.80;;;1.17;;
22794;SDS011;11564;50.920;11.612;2022-09-20T12:09:53;11.87;;;1.10;;
22794;SDS011;11564;50.920;11.612;2022-09-20T12:12:45;2.27;;;1.07;;
22794;SDS011;11564;50.920;11.612;2022-09-20T12:15:45;1.83;;;0.90;;
22794;SDS011;11564;50.920;11.612;2022-09-20T12:26:05;4.27;;;1.03;;
22794;SDS011;11564;50.920;11.612;2022-09-20T12:28:35;1.97;;;1.00;;
22794;SDS011;11564;50.920;11.612;2022-09-20T12:39:20;4.17;;;1.27;;
22794;SDS011;11564;50.920;11.612;2022-09-20T12:42:01;2.30;;;0.60;;
22794;SDS011;11564;50.920;11.612;2022-09-20T12:44:40;4.13;;;1.00;;
22794;SDS011;11564;50.920;11.612;2022-09-20T12:47:19;2.50;;;0.80;;
22794;SDS011;11564;50.920;11.612;2022-09-20T12:49:53;1.17;;;0.67;;
22794;SDS011;11564;50.920;11.612;2022-09-20T13:00:40;2.73;;;1.20;;
22794;SDS011;11564;50.920;11.612;2022-09-20T13:06:20;2.77;;;1.20;;
22794;SDS011;11564;50.920;11.612;2022-09-20T13:08:52;2.00;;;1.30;;
22794;SDS011;11564;50.920;11.612;2022-09-20T13:11:28;4.20;;;1.63;;
22794;SDS011;11564;50.920;11.612;2022-09-20T13:14:29;2.17;;;1.10;;
22794;SDS011;11564;50.920;11.612;2022-09-20T13:16:58;1.10;;;1.00;;
22794;SDS011;11564;50.920;11.612;2022-09-20T13:19:33;1.80;;;1.07;;
22794;SDS011;11564;50.920;11.612;2022-09-20T13:24:32;1.20;;;0.70;;
22794;SDS011;11564;50.920;11.612;2022-09-20T13:27:04;0.80;;;0.80;;
22794;SDS011;11564;50.920;11.612;2022-09-20T13:29:33;1.30;;;0.60;;
22794;SDS011;11564;50.920;11.612;2022-09-20T13:37:53;5.50;;;1.00;;
22794;SDS011;11564;50.920;11.612;2022-09-20T13:42:54;0.50;;;0.40;;
22794;SDS011;11564;50.920;11.612;2022-09-20T13:45:23;1.20;;;0.70;;
22794;SDS011;11564;50.920;11.612;2022-09-20T13:47:50;0.73;;;0.60;;
22794;SDS011;11564;50.920;11.612;2022-09-20T13:52:48;4.90;;;1.00;;
22794;SDS011;11564;50.920;11.612;2022-09-20T13:55:32;1.50;;;0.90;;
22794;SDS011;11564;50.920;11.612;2022-09-20T13:58:04;1.83;;;1.20;;
22794;SDS011;11564;50.920;11.612;2022-09-20T14:00:45;0.70;;;0.70;;
22794;SDS011;11564;50.920;11.612;2022-09-20T14:03:17;0.70;;;0.67;;
22794;SDS011;11564;50.920;11.612;2022-09-20T14:05:45;3.40;;;0.67;;
22794;SDS011;11564;50.920;11.612;2022-09-20T14:08:15;1.80;;;0.50;;
22794;SDS011;11564;50.920;11.612;2022-09-20T14:10:49;1.43;;;0.50;;
22794;SDS011;11564;50.920;11.612;2022-09-20T14:13:26;0.77;;;0.40;;
22794;SDS011;11564;50.920;11.612;2022-09-20T14:15:55;0.60;;;0.50;;
22794;SDS011;11564;50.920;11.612;2022-09-20T14:18:22;1.27;;;0.60;;
22794;SDS011;11564;50.920;11.612;2022-09-20T14:20:48;0.60;;;0.40;;
22794;SDS011;11564;50.920;11.612;2022-09-20T14:23:24;0.57;;;0.40;;
22794;SDS011;11564;50.920;11.612;2022-09-20T14:26:07;0.60;;;0.40;;
22794;SDS011;11564;50.920;11.612;2022-09-20T14:28:44;0.67;;;0.30;;
22794;SDS011;11564;50.920;11.612;2022-09-20T14:31:15;0.70;;;0.40;;
22794;SDS011;11564;50.920;11.612;2022-09-20T14:33:50;0.60;;;0.40;;
22794;SDS011;11564;50.920;11.612;2022-09-20T14:36:22;0.73;;;0.50;;
22794;SDS011;11564;50.920;11.612;2022-09-20T14:38:51;2.50;;;0.40;;
22794;SDS011;11564;50.920;11.612;2022-09-20T14:41:36;0.83;;;0.30;;
22794;SDS011;11564;50.920;11.612;2022-09-20T14:44:05;1.43;;;0.30;;
22794;SDS011;11564;50.920;11.612;2022-09-20T14:46:41;0.60;;;0.40;;
22794;SDS011;11564;50.920;11.612;2022-09-20T14:51:49;0.50;;;0.30;;
22794;SDS011;11564;50.920;11.612;2022-09-20T14:54:28;0.50;;;0.40;;
22794;SDS011;11564;50.920;11.612;2022-09-20T14:56:56;0.50;;;0.40;;
22794;SDS011;11564;50.920;11.612;2022-09-20T14:59:35;0.87;;;0.80;;
22794;SDS011;11564;50.920;11.612;2022-09-20T15:02:13;1.43;;;0.30;;
22794;SDS011;11564;50.920;11.612;2022-09-20T15:04:40;1.03;;;0.40;;
22794;SDS011;11564;50.920;11.612;2022-09-20T15:07:15;1.07;;;0.40;;
22794;SDS011;11564;50.920;11.612;2022-09-20T15:09:40;3.17;;;0.40;;
22794;SDS011;11564;50.920;11.612;2022-09-20T15:12:10;0.73;;;0.30;;
22794;SDS011;11564;50.920;11.612;2022-09-20T15:14:40;0.60;;;0.40;;
22794;SDS011;11564;50.920;11.612;2022-09-20T15:17:08;1.03;;;0.70;;
22794;SDS011;11564;50.920;11.612;2022-09-20T15:19:38;1.83;;;0.50;;
22794;SDS011;11564;50.920;11.612;2022-09-20T15:22:04;2.57;;;0.50;;
22794;SDS011;11564;50.920;11.612;2022-09-20T15:24:30;3.70;;;0.50;;
22794;SDS011;11564;50.920;11.612;2022-09-20T15:26:55;0.70;;;0.40;;
22794;SDS011;11564;50.920;11.612;2022-09-20T15:29:21;1.23;;;0.57;;
22794;SDS011;11564;50.920;11.612;2022-09-20T15:31:46;0.80;;;0.50;;
22794;SDS011;11564;50.920;11.612;2022-09-20T15:34:13;2.90;;;0.40;;
22794;SDS011;11564;50.920;11.612;2022-09-20T15:36:39;0.63;;;0.50;;
22794;SDS011;11564;50.920;11.612;2022-09-20T15:39:05;0.83;;;0.50;;
22794;SDS011;11564;50.920;11.612;2022-09-20T15:41:31;1.20;;;0.60;;
22794;SDS011;11564;50.920;11.612;2022-09-20T15:43:57;0.70;;;0.50;;
22794;SDS011;11564;50.920;11.612;2022-09-20T15:46:24;0.60;;;0.40;;
22794;SDS011;11564;50.920;11.612;2022-09-20T15:48:53;1.43;;;0.60;;
22794;SDS011;11564;50.920;11.612;2022-09-20T15:51:19;1.33;;;0.70;;
22794;SDS011;11564;50.920;11.612;2022-09-20T15:53:45;2.70;;;0.50;;
22794;SDS011;11564;50.920;11.612;2022-09-20T15:56:23;1.83;;;0.70;;
22794;SDS011;11564;50.920;11.612;2022-09-20T15:58:52;1.10;;;0.60;;
22794;SDS011;11564;50.920;11.612;2022-09-20T16:01:23;1.10;;;0.80;;
22794;SDS011;11564;50.920;11.612;2022-09-20T16:03:54;1.83;;;0.80;;
22794;SDS011;11564;50.920;11.612;2022-09-20T16:06:20;3.03;;;1.87;;
22794;SDS011;11564;50.920;11.612;2022-09-20T16:08:47;3.80;;;1.50;;
22794;SDS011;11564;50.920;11.612;2022-09-20T16:11:14;3.33;;;1.23;;
22794;SDS011;11564;50.920;11.612;2022-09-20T16:13:41;3.13;;;0.80;;
22794;SDS011;11564;50.920;11.612;2022-09-20T16:16:07;3.43;;;0.73;;
22794;SDS011;11564;50.920;11.612;2022-09-20T16:18:36;7.10;;;0.90;;
22794;SDS011;11564;50.920;11.612;2022-09-20T16:21:21;7.50;;;4.13;;
22794;SDS011;11564;50.920;11.612;2022-09-20T16:23:52;18.30;;;8.97;;
22794;SDS011;11564;50.920;11.612;2022-09-20T16:26:19;2.13;;;1.27;;
22794;SDS011;11564;50.920;11.612;2022-09-20T16:28:46;3.37;;;1.30;;
22794;SDS011;11564;50.920;11.612;2022-09-20T16:34:06;14.07;;;2.80;;
22794;SDS011;11564;50.920;11.612;2022-09-20T16:36:34;1.70;;;1.27;;
22794;SDS011;11564;50.920;11.612;2022-09-20T16:39:00;1.70;;;1.60;;
22794;SDS011;11564;50.920;11.612;2022-09-20T16:41:27;1.60;;;1.40;;
22794;SDS011;11564;50.920;11.612;2022-09-20T16:43:53;1.37;;;1.27;;
22794;SDS011;11564;50.920;11.612;2022-09-20T16:46:23;2.10;;;1.90;;
22794;SDS011;11564;50.920;11.612;2022-09-20T16:48:51;1.53;;;1.30;;
22794;SDS011;11564;50.920;11.612;2022-09-20T16:51:25;3.77;;;1.93;;
22794;SDS011;11564;50.920;11.612;2022-09-20T16:53:56;2.40;;;1.33;;
22794;SDS011;11564;50.920;11.612;2022-09-20T16:56:23;9.30;;;1.20;;
22794;SDS011;11564;50.920;11.612;2022-09-20T16:58:50;2.30;;;1.10;;
22794;SDS011;11564;50.920;11.612;2022-09-20T17:01:17;4.33;;;1.37;;
22794;SDS011;11564;50.920;11.612;2022-09-20T17:03:43;2.03;;;1.77;;
22794;SDS011;11564;50.920;11.612;2022-09-20T17:06:10;2.10;;;1.90;;
22794;SDS011;11564;50.920;11.612;2022-09-20T17:08:36;1.97;;;1.77;;
22794;SDS011;11564;50.920;11.612;2022-09-20T17:11:04;2.70;;;1.63;;
22794;SDS011;11564;50.920;11.612;2022-09-20T17:13:38;1.93;;;1.67;;
22794;SDS011;11564;50.920;11.612;2022-09-20T17:16:05;1.60;;;1.50;;
22794;SDS011;11564;50.920;11.612;2022-09-20T17:18:32;3.20;;;1.30;;
22794;SDS011;11564;50.920;11.612;2022-09-20T17:21:04;1.90;;;1.80;;
22794;SDS011;11564;50.920;11.612;2022-09-20T17:23:30;2.00;;;1.80;;
22794;SDS011;11564;50.920;11.612;2022-09-20T17:26:00;3.10;;;2.23;;
22794;SDS011;11564;50.920;11.612;2022-09-20T17:28:32;2.80;;;2.60;;
22794;SDS011;11564;50.920;11.612;2022-09-20T17:31:02;7.90;;;2.50;;
22794;SDS011;11564;50.920;11.612;2022-09-20T17:33:28;3.60;;;2.30;;
22794;SDS011;11564;50.920;11.612;2022-09-20T17:35:55;2.67;;;2.47;;
22794;SDS011;11564;50.920;11.612;2022-09-20T17:38:24;5.60;;;5.10;;
22794;SDS011;11564;50.920;11.612;2022-09-20T17:41:03;5.97;;;4.67;;
22794;SDS011;11564;50.920;11.612;2022-09-20T17:43:32;6.27;;;3.80;;
22794;SDS011;11564;50.920;11.612;2022-09-20T17:48:36;4.00;;;2.60;;
22794;SDS011;11564;50.920;11.612;2022-09-20T17:51:02;7.43;;;2.33;;
22794;SDS011;11564;50.920;11.612;2022-09-20T17:53:31;1.90;;;1.80;;
22794;SDS011;11564;50.920;11.612;2022-09-20T17:55:58;7.13;;;1.60;;
22794;SDS011;11564;50.920;11.612;2022-09-20T17:58:25;6.93;;;2.63;;
22794;SDS011;11564;50.920;11.612;2022-09-20T18:00:51;4.70;;;3.50;;
22794;SDS011;11564;50.920;11.612;2022-09-20T18:03:22;4.83;;;3.80;;
22794;SDS011;11564;50.920;11.612;2022-09-20T18:05:48;5.67;;;4.73;;
22794;SDS011;11564;50.920;11.612;2022-09-20T18:08:15;8.77;;;6.70;;
22794;SDS011;11564;50.920;11.612;2022-09-20T18:10:41;25.33;;;10.17;;
22794;SDS011;11564;50.920;11.612;2022-09-20T18:13:18;40.87;;;18.17;;
22794;SDS011;11564;50.920;11.612;2022-09-20T18:15:44;41.20;;;16.70;;
22794;SDS011;11564;50.920;11.612;2022-09-20T18:18:09;40.07;;;17.07;;
22794;SDS011;11564;50.920;11.612;2022-09-20T18:20:36;43.10;;;16.20;;
22794;SDS011;11564;50.920;11.612;2022-09-20T18:23:03;40.37;;;14.77;;
22794;SDS011;11564;50.920;11.612;2022-09-20T18:25:28;38.77;;;12.30;;
22794;SDS011;11564;50.920;11.612;2022-09-20T18:28:14;35.43;;;12.57;;
22794;SDS011;11564;50.920;11.612;2022-09-20T18:30:41;26.10;;;11.03;;
22794;SDS011;11564;50.920;11.612;2022-09-20T18:33:09;34.37;;;10.93;;
22794;SDS011;11564;50.920;11.612;2022-09-20T18:35:35;24.70;;;10.53;;
22794;SDS011;11564;50.920;11.612;2022-09-20T18:38:04;26.40;;;10.00;;
22794;SDS011;11564;50.920;11.612;2022-09-20T18:40:30;26.63;;;8.10;;
22794;SDS011;11564;50.920;11.612;2022-09-20T18:42:55;15.13;;;7.00;;
22794;SDS011;11564;50.920;11.612;2022-09-20T18:45:24;15.17;;;6.87;;
22794;SDS011;11564;50.920;11.612;2022-09-20T18:47:51;18.67;;;7.60;;
22794;SDS011;11564;50.920;11.612;2022-09-20T18:50:21;13.17;;;6.20;;
22794;SDS011;11564;50.920;11.612;2022-09-20T18:52:48;22.53;;;7.57;;
22794;SDS011;11564;50.920;11.612;2022-09-20T18:55:15;14.57;;;7.87;;
22794;SDS011;11564;50.920;11.612;2022-09-20T18:57:41;20.73;;;8.70;;
22794;SDS011;11564;50.920;11.612;2022-09-20T19:00:08;11.03;;;6.50;;
22794;SDS011;11564;50.920;11.612;2022-09-20T19:05:16;6.13;;;4.60;;
22794;SDS011;11564;50.920;11.612;2022-09-20T19:08:14;5.23;;;3.70;;
22794;SDS011;11564;50.920;11.612;2022-09-20T19:10:48;8.63;;;5.17;;
22794;SDS011;11564;50.920;11.612;2022-09-20T19:13:30;5.57;;;4.63;;
22794;SDS011;11564;50.920;11.612;2022-09-20T19:18:51;6.70;;;4.10;;
22794;SDS011;11564;50.920;11.612;2022-09-20T19:26:54;3.30;;;3.00;;
22794;SDS011;11564;50.920;11.612;2022-09-20T19:29:21;3.47;;;3.10;;
22794;SDS011;11564;50.920;11.612;2022-09-20T19:31:50;6.20;;;3.50;;
22794;SDS011;11564;50.920;11.612;2022-09-20T19:34:21;2.63;;;2.40;;
22794;SDS011;11564;50.920;11.612;2022-09-20T19:39:54;2.93;;;2.70;;
22794;SDS011;11564;50.920;11.612;2022-09-20T19:42:23;3.37;;;3.07;;
22794;SDS011;11564;50.920;11.612;2022-09-20T19:48:15;5.70;;;3.43;;
22794;SDS011;11564;50.920;11.612;2022-09-20T19:50:50;6.03;;;3.97;;
22794;SDS011;11564;50.920;11.612;2022-09-20T19:53:18;12.07;;;4.40;;
22794;SDS011;11564;50.920;11.612;2022-09-20T19:55:47;7.37;;;4.53;;
22794;SDS011;11564;50.920;11.612;2022-09-20T19:58:17;4.43;;;4.03;;
22794;SDS011;11564;50.920;11.612;2022-09-20T20:00:43;4.87;;;4.17;;
22794;SDS011;11564;50.920;11.612;2022-09-20T20:03:10;4.07;;;3.77;;
22794;SDS011;11564;50.920;11.612;2022-09-20T20:05:38;6.10;;;3.50;;
22794;SDS011;11564;50.920;11.612;2022-09-20T20:08:30;3.63;;;3.33;;
22794;SDS011;11564;50.920;11.612;2022-09-20T20:11:10;6.77;;;2.60;;
22794;SDS011;11564;50.920;11.612;2022-09-20T20:13:58;5.30;;;2.60;;
22794;SDS011;11564;50.920;11.612;2022-09-20T20:21:59;3.07;;;2.77;;
22794;SDS011;11564;50.920;11.612;2022-09-20T20:24:46;2.30;;;2.00;;
22794;SDS011;11564;50.920;11.612;2022-09-20T20:27:15;2.80;;;2.60;;
22794;SDS011;11564;50.920;11.612;2022-09-20T20:29:41;2.93;;;2.60;;
22794;SDS011;11564;50.920;11.612;2022-09-20T20:32:07;4.47;;;2.63;;
22794;SDS011;11564;50.920;11.612;2022-09-20T20:34:32;3.13;;;2.83;;
22794;SDS011;11564;50.920;11.612;2022-09-20T20:37:01;4.23;;;3.00;;
22794;SDS011;11564;50.920;11.612;2022-09-20T20:39:27;3.73;;;2.50;;
22794;SDS011;11564;50.920;11.612;2022-09-20T20:41:55;11.07;;;2.60;;
22794;SDS011;11564;50.920;11.612;2022-09-20T20:44:31;4.00;;;2.80;;
22794;SDS011;11564;50.920;11.612;2022-09-20T20:47:02;4.63;;;2.27;;
22794;SDS011;11564;50.920;11.612;2022-09-20T20:49:28;3.67;;;2.80;;